Ice Angel — 2BRA3 — position and weather

sailwx.info

Track history (hours):
 
Tides and Currents Weather Stations Pressure Air Temp Water Temp Dewpoint Dewpoint Depression Visibility Wind Speed Wind Dir Waves Ship Positions

Ice Angel

Last reported at 2017-Sep-14 10:27 UTC. Time now 2017-Sep-21 05:17 UTC.
Position N 43°27' E 006°58'.

Length 60 m; draft 3 m.

Type: Pleasure craft. MMSI: 235068579.

Date/timePositionNaut miles runAvg speedWind from/ knotsBaromVisibWave heightAir tempDewpointWater temp
2017-Sep-14 10:27N 43°27' E 006°58'614.2
2017-Sep-14 10:00N 43°29' E 007°06'47 1.2
2017-Sep-12 19:30N 43°53' E 008°02'0 0.0
2017-Sep-12 18:57N 43°53' E 008°02'0 0.0
2017-Sep-12 18:30N 43°53' E 008°02'0 0.0
2017-Sep-12 18:00N 43°53' E 008°02'0 0.0
2017-Sep-12 17:30N 43°53' E 008°02'0 0.0
2017-Sep-12 17:00N 43°53' E 008°02'0 0.0
2017-Sep-12 16:30N 43°53' E 008°02'0 0.0
2017-Sep-12 16:00N 43°53' E 008°02'0 0.0
2017-Sep-12 15:30N 43°53' E 008°02'0 0.0
2017-Sep-12 14:57N 43°53' E 008°02'0 0.0
2017-Sep-12 14:30N 43°53' E 008°02'0 0.0
2017-Sep-12 14:00N 43°53' E 008°02'0 0.0
2017-Sep-12 12:15N 43°53' E 008°02'0 0.0
2017-Sep-12 12:00N 43°53' E 008°02'0 0.0
2017-Sep-11 19:09N 43°53' E 008°02'0 0.0
2017-Sep-11 19:00N 43°53' E 008°02'0 0.0
2017-Sep-11 17:57N 43°53' E 008°02'0 0.0
2017-Sep-11 17:27N 43°53' E 008°02'0 0.0
2017-Sep-11 16:03N 43°53' E 008°02'0 0.0
2017-Sep-11 16:00N 43°53' E 008°02'0 0.0
2017-Sep-11 14:32N 43°53' E 008°02'0 0.5
2017-Sep-11 14:30N 43°53' E 008°02'5 6.9
2017-Sep-11 13:47N 43°49' E 007°58'1 3.0
2017-Sep-11 13:30N 43°49' E 007°57'4 7.4
2017-Sep-11 12:56N 43°52' E 008°02'24 3.7
2017-Sep-11 06:17N 43°38' E 008°29'412.5
2017-Sep-11 06:00N 43°36' E 008°34'612.2
2017-Sep-11 05:29N 43°32' E 008°41'612.0
2017-Sep-11 05:00N 43°29' E 008°47'711.5
2017-Sep-11 04:25N 43°25' E 008°55'510.7
2017-Sep-11 03:59N 43°22' E 008°60'  
Track history (hours):
 
Tides and Currents Weather Stations Pressure Air Temp Water Temp Dewpoint Dewpoint Depression Visibility Wind Speed Wind Dir Waves Ship Positions

Ice Angel

Last reported at 2017-Sep-14 10:27 UTC. Time now 2017-Sep-21 05:17 UTC.
Position N 43°27' E 006°58'.

Length 60 m; draft 3 m.

Type: Pleasure craft. MMSI: 235068579.

Date/timePositionNaut miles runAvg speedWind from/ knotsBaromVisibWave heightAir tempDewpointWater temp
2017-Sep-14 10:27N 43°27' E 006°58'614.2
2017-Sep-14 10:00N 43°29' E 007°06'47 1.2
2017-Sep-12 19:30N 43°53' E 008°02'0 0.0
2017-Sep-12 18:57N 43°53' E 008°02'0 0.0
2017-Sep-12 18:30N 43°53' E 008°02'0 0.0
2017-Sep-12 18:00N 43°53' E 008°02'0 0.0
2017-Sep-12 17:30N 43°53' E 008°02'0 0.0
2017-Sep-12 17:00N 43°53' E 008°02'0 0.0
2017-Sep-12 16:30N 43°53' E 008°02'0 0.0
2017-Sep-12 16:00N 43°53' E 008°02'0 0.0
2017-Sep-12 15:30N 43°53' E 008°02'0 0.0
2017-Sep-12 14:57N 43°53' E 008°02'0 0.0
2017-Sep-12 14:30N 43°53' E 008°02'0 0.0
2017-Sep-12 14:00N 43°53' E 008°02'0 0.0
2017-Sep-12 12:15N 43°53' E 008°02'0 0.0
2017-Sep-12 12:00N 43°53' E 008°02'0 0.0
2017-Sep-11 19:09N 43°53' E 008°02'0 0.0
2017-Sep-11 19:00N 43°53' E 008°02'0 0.0
2017-Sep-11 17:57N 43°53' E 008°02'0 0.0
2017-Sep-11 17:27N 43°53' E 008°02'0 0.0
2017-Sep-11 16:03N 43°53' E 008°02'0 0.0
2017-Sep-11 16:00N 43°53' E 008°02'0 0.0
2017-Sep-11 14:32N 43°53' E 008°02'0 0.5
2017-Sep-11 14:30N 43°53' E 008°02'5 6.9
2017-Sep-11 13:47N 43°49' E 007°58'1 3.0
2017-Sep-11 13:30N 43°49' E 007°57'4 7.4
2017-Sep-11 12:56N 43°52' E 008°02'24 3.7
2017-Sep-11 06:17N 43°38' E 008°29'412.5
2017-Sep-11 06:00N 43°36' E 008°34'612.2
2017-Sep-11 05:29N 43°32' E 008°41'612.0
2017-Sep-11 05:00N 43°29' E 008°47'711.5
2017-Sep-11 04:25N 43°25' E 008°55'510.7
2017-Sep-11 03:59N 43°22' E 008°60'  

Dump ship's entire track history